Terminal Aerodrome Forecast
Issued by NWS Green Bay, WI

Home | Current Version | Previous Version | Text Only | Print | Product List | Glossary On
Versions: 1 2 3 4 5 6 7 8 9 10 11 12 13 14 15 16 17 18 19
000
FTUS43 KGRB 240520
TAFGRB
TAF
KGRB 240520Z 2406/2506 21008G15KT P6SM BKN100 WS015/24045KT
     FM241500 21014G23KT P6SM BKN120
     FM242200 24011G20KT P6SM -SHRA BKN040 BKN080
     FM250200 29013G20KT P6SM BKN035=

USA.gov is the U.S. government's official web portal to all federal, state and local government web resources and services.